Pagrindinis puslapis
METAR-TAF:

METAR-TAF

Oro uostai :

Såtenäs, Švedija

platuma: 58-26N, ilguma: 012-42E, Aukštis: 54 m

Dabartinis oras

Ataskaita buvo paskelbta 15 minutes, ne 00:20 UTC
Vėjas 12 kt iš Pietryčių
Temperatūra 11°C
Drėgmė 100%
Slėgis 1011 hPa
Matomumas 10 km arba daugiau

METAR: ESIB 010020Z AUTO 14012KT 9999 FEW008/// SCT013/// BKN021/// OVC027/// 11/11 Q1011

Laikas: 01:35 (00:35 UTC)


TAF: trūkstamas

Orai ataskaitas ir orų prognozės (METAR, TAF).

turimą stotys yra geltonos ir raudonos taškus žemėlapyje.

Perkelti pele per norėdami pamatyti stoties vardą.

Tada spustelėkite, norėdami matyti oro stebėjimo ir prognozės.

Norėdami pakeisti žemėlapį: spustelėkite ant žalios mygtukų su juodo kryžiaus žemyn,; žalią mygtuką su brūkšneliu, jei norite nutolinti; arba žalių rodyklių gretimoms žemėlapius.


METAR-TAF: